sensor_id;sensor_type;location;lat;lon;timestamp;pressure;altitude;pressure_sealevel;temperature;humidity
68525;BME280;55524;51.380;13.372;2022-07-04T00:00:46;100425.69;;;19.96;61.32
68525;BME280;55524;51.380;13.372;2022-07-04T00:03:12;100421.53;;;20.03;60.58
68525;BME280;55524;51.380;13.372;2022-07-04T00:05:38;100429.13;;;20.20;59.42
68525;BME280;55524;51.380;13.372;2022-07-04T00:08:05;100430.63;;;20.24;59.15
68525;BME280;55524;51.380;13.372;2022-07-04T00:10:31;100422.19;;;20.29;58.64
68525;BME280;55524;51.380;13.372;2022-07-04T00:12:58;100433.53;;;20.21;58.69
68525;BME280;55524;51.380;13.372;2022-07-04T00:15:24;100424.38;;;20.24;58.18
68525;BME280;55524;51.380;13.372;2022-07-04T00:17:51;100430.00;;;20.21;58.48
68525;BME280;55524;51.380;13.372;2022-07-04T00:20:17;100444.59;;;20.05;59.03
68525;BME280;55524;51.380;13.372;2022-07-04T00:22:44;100450.53;;;19.98;59.13
68525;BME280;55524;51.380;13.372;2022-07-04T00:25:11;100453.00;;;20.01;59.13
68525;BME280;55524;51.380;13.372;2022-07-04T00:27:37;100451.75;;;19.94;59.48
68525;BME280;55524;51.380;13.372;2022-07-04T00:30:05;100460.88;;;19.80;60.11
68525;BME280;55524;51.380;13.372;2022-07-04T00:32:31;100462.66;;;19.79;59.97
68525;BME280;55524;51.380;13.372;2022-07-04T00:34:57;100459.19;;;19.66;60.44
68525;BME280;55524;51.380;13.372;2022-07-04T00:37:23;100459.97;;;19.79;60.00
68525;BME280;55524;51.380;13.372;2022-07-04T00:39:50;100456.97;;;19.60;60.79
68525;BME280;55524;51.380;13.372;2022-07-04T00:42:16;100466.09;;;19.57;60.92
68525;BME280;55524;51.380;13.372;2022-07-04T00:44:42;100459.88;;;19.57;60.45
68525;BME280;55524;51.380;13.372;2022-07-04T00:47:09;100463.75;;;19.53;60.67
68525;BME280;55524;51.380;13.372;2022-07-04T00:49:35;100466.31;;;19.54;60.56
68525;BME280;55524;51.380;13.372;2022-07-04T00:52:02;100465.59;;;19.52;60.47
68525;BME280;55524;51.380;13.372;2022-07-04T00:54:30;100481.13;;;19.47;60.66
68525;BME280;55524;51.380;13.372;2022-07-04T00:56:58;100484.84;;;19.33;61.47
68525;BME280;55524;51.380;13.372;2022-07-04T00:59:24;100497.53;;;19.19;62.10
68525;BME280;55524;51.380;13.372;2022-07-04T01:01:51;100495.19;;;19.14;62.26
68525;BME280;55524;51.380;13.372;2022-07-04T01:04:18;100489.16;;;19.23;61.72
68525;BME280;55524;51.380;13.372;2022-07-04T01:06:45;100501.13;;;19.30;61.56
68525;BME280;55524;51.380;13.372;2022-07-04T01:09:12;100498.03;;;19.24;61.68
68525;BME280;55524;51.380;13.372;2022-07-04T01:11:38;100506.19;;;19.22;61.96
68525;BME280;55524;51.380;13.372;2022-07-04T01:14:04;100505.44;;;19.20;61.71
68525;BME280;55524;51.380;13.372;2022-07-04T01:16:34;100512.00;;;19.16;62.04
68525;BME280;55524;51.380;13.372;2022-07-04T01:19:01;100520.56;;;19.08;62.35
68525;BME280;55524;51.380;13.372;2022-07-04T01:21:27;100513.72;;;19.04;62.70
68525;BME280;55524;51.380;13.372;2022-07-04T01:23:53;100521.88;;;19.03;62.94
68525;BME280;55524;51.380;13.372;2022-07-04T01:26:20;100524.78;;;19.12;62.70
68525;BME280;55524;51.380;13.372;2022-07-04T01:28:47;100535.28;;;19.03;63.23
68525;BME280;55524;51.380;13.372;2022-07-04T01:31:13;100543.53;;;19.00;63.51
68525;BME280;55524;51.380;13.372;2022-07-04T01:33:39;100562.16;;;18.88;66.06
68525;BME280;55524;51.380;13.372;2022-07-04T01:36:05;100563.34;;;18.84;66.58
68525;BME280;55524;51.380;13.372;2022-07-04T01:38:32;100573.00;;;18.74;67.04
68525;BME280;55524;51.380;13.372;2022-07-04T01:40:58;100570.94;;;18.65;66.70
68525;BME280;55524;51.380;13.372;2022-07-04T01:43:24;100589.88;;;18.62;69.23
68525;BME280;55524;51.380;13.372;2022-07-04T01:45:50;100592.88;;;18.57;69.08
68525;BME280;55524;51.380;13.372;2022-07-04T01:48:17;100603.16;;;18.51;68.60
68525;BME280;55524;51.380;13.372;2022-07-04T01:50:43;100599.50;;;18.52;70.26
68525;BME280;55524;51.380;13.372;2022-07-04T01:53:09;100593.81;;;18.56;69.29
68525;BME280;55524;51.380;13.372;2022-07-04T01:55:35;100598.84;;;18.61;69.24
68525;BME280;55524;51.380;13.372;2022-07-04T01:58:02;100600.00;;;18.71;69.70
68525;BME280;55524;51.380;13.372;2022-07-04T02:00:29;100592.72;;;18.73;69.38
68525;BME280;55524;51.380;13.372;2022-07-04T02:03:14;100595.06;;;18.78;69.66
68525;BME280;55524;51.380;13.372;2022-07-04T02:05:42;100610.28;;;18.77;70.55
68525;BME280;55524;51.380;13.372;2022-07-04T02:08:08;100612.41;;;18.72;70.22
68525;BME280;55524;51.380;13.372;2022-07-04T02:10:36;100625.44;;;18.64;71.07
68525;BME280;55524;51.380;13.372;2022-07-04T02:13:03;100636.00;;;18.53;73.46
68525;BME280;55524;51.380;13.372;2022-07-04T02:15:39;100629.91;;;18.51;72.67
68525;BME280;55524;51.380;13.372;2022-07-04T02:18:09;100622.63;;;18.53;71.00
68525;BME280;55524;51.380;13.372;2022-07-04T02:20:36;100621.91;;;18.63;70.49
68525;BME280;55524;51.380;13.372;2022-07-04T02:23:03;100622.03;;;18.62;70.68
68525;BME280;55524;51.380;13.372;2022-07-04T02:25:30;100623.53;;;18.66;70.70
68525;BME280;55524;51.380;13.372;2022-07-04T02:27:57;100634.97;;;18.68;70.88
68525;BME280;55524;51.380;13.372;2022-07-04T02:30:24;100633.81;;;18.72;70.68
68525;BME280;55524;51.380;13.372;2022-07-04T02:32:50;100635.94;;;18.67;71.22
68525;BME280;55524;51.380;13.372;2022-07-04T02:35:16;100643.53;;;18.60;70.99
68525;BME280;55524;51.380;13.372;2022-07-04T02:37:43;100635.19;;;18.65;69.93
68525;BME280;55524;51.380;13.372;2022-07-04T02:40:09;100642.34;;;18.64;70.23
68525;BME280;55524;51.380;13.372;2022-07-04T02:42:36;100646.66;;;18.67;69.21
68525;BME280;55524;51.380;13.372;2022-07-04T02:45:04;100646.66;;;18.67;69.87
68525;BME280;55524;51.380;13.372;2022-07-04T02:47:30;100648.22;;;18.57;70.19
68525;BME280;55524;51.380;13.372;2022-07-04T02:49:57;100642.88;;;18.57;70.05
68525;BME280;55524;51.380;13.372;2022-07-04T02:52:23;100647.47;;;18.55;70.55
68525;BME280;55524;51.380;13.372;2022-07-04T02:54:50;100647.69;;;18.52;70.30
68525;BME280;55524;51.380;13.372;2022-07-04T02:57:18;100651.53;;;18.48;70.40
68525;BME280;55524;51.380;13.372;2022-07-04T02:59:45;100658.81;;;18.46;70.03
68525;BME280;55524;51.380;13.372;2022-07-04T03:02:11;100671.28;;;18.32;71.29
68525;BME280;55524;51.380;13.372;2022-07-04T03:04:37;100665.59;;;18.37;70.35
68525;BME280;55524;51.380;13.372;2022-07-04T03:07:06;100674.56;;;18.23;71.28
68525;BME280;55524;51.380;13.372;2022-07-04T03:09:33;100679.19;;;18.07;72.49
68525;BME280;55524;51.380;13.372;2022-07-04T03:12:00;100685.59;;;18.04;72.89
68525;BME280;55524;51.380;13.372;2022-07-04T03:14:26;100685.03;;;17.99;72.61
68525;BME280;55524;51.380;13.372;2022-07-04T03:16:52;100682.00;;;17.91;72.94
68525;BME280;55524;51.380;13.372;2022-07-04T03:19:18;100683.91;;;17.89;72.19
68525;BME280;55524;51.380;13.372;2022-07-04T03:21:44;100688.59;;;17.85;71.86
68525;BME280;55524;51.380;13.372;2022-07-04T03:24:11;100706.94;;;17.77;73.26
68525;BME280;55524;51.380;13.372;2022-07-04T03:26:37;100716.03;;;17.75;73.99
68525;BME280;55524;51.380;13.372;2022-07-04T03:29:03;100719.69;;;17.58;74.82
68525;BME280;55524;51.380;13.372;2022-07-04T03:31:29;100723.16;;;17.60;75.10
68525;BME280;55524;51.380;13.372;2022-07-04T03:33:56;100730.97;;;17.49;75.70
68525;BME280;55524;51.380;13.372;2022-07-04T03:36:22;100732.97;;;17.59;74.73
68525;BME280;55524;51.380;13.372;2022-07-04T03:38:49;100736.81;;;17.55;74.38
68525;BME280;55524;51.380;13.372;2022-07-04T03:41:15;100730.69;;;17.53;74.36
68525;BME280;55524;51.380;13.372;2022-07-04T03:43:42;100732.88;;;17.47;75.31
68525;BME280;55524;51.380;13.372;2022-07-04T03:46:08;100741.44;;;17.37;76.52
68525;BME280;55524;51.380;13.372;2022-07-04T03:48:34;100749.47;;;17.37;76.47
68525;BME280;55524;51.380;13.372;2022-07-04T03:51:02;100751.66;;;17.31;77.10
68525;BME280;55524;51.380;13.372;2022-07-04T03:53:28;100747.25;;;17.30;77.46
68525;BME280;55524;51.380;13.372;2022-07-04T03:55:54;100760.72;;;17.28;78.24
68525;BME280;55524;51.380;13.372;2022-07-04T03:58:20;100758.31;;;17.24;78.22
68525;BME280;55524;51.380;13.372;2022-07-04T04:00:46;100757.47;;;17.23;78.61
68525;BME280;55524;51.380;13.372;2022-07-04T04:03:13;100763.75;;;17.22;79.18
68525;BME280;55524;51.380;13.372;2022-07-04T04:06:02;100766.16;;;17.27;79.48
68525;BME280;55524;51.380;13.372;2022-07-04T04:08:28;100759.84;;;17.28;79.95
68525;BME280;55524;51.380;13.372;2022-07-04T04:10:55;100763.28;;;17.30;79.77
68525;BME280;55524;51.380;13.372;2022-07-04T04:13:21;100765.22;;;17.42;79.79
68525;BME280;55524;51.380;13.372;2022-07-04T04:15:47;100773.72;;;17.49;79.87
68525;BME280;55524;51.380;13.372;2022-07-04T04:18:13;100782.53;;;17.51;80.14
68525;BME280;55524;51.380;13.372;2022-07-04T04:20:40;100783.19;;;17.54;80.21
68525;BME280;55524;51.380;13.372;2022-07-04T04:23:06;100788.44;;;17.56;80.26
68525;BME280;55524;51.380;13.372;2022-07-04T04:25:32;100786.72;;;17.55;80.20
68525;BME280;55524;51.380;13.372;2022-07-04T04:28:00;100785.59;;;17.59;80.68
68525;BME280;55524;51.380;13.372;2022-07-04T04:30:31;100787.00;;;17.64;80.36
68525;BME280;55524;51.380;13.372;2022-07-04T04:32:57;100787.00;;;17.64;80.23
68525;BME280;55524;51.380;13.372;2022-07-04T04:35:23;100798.09;;;17.58;80.32
68525;BME280;55524;51.380;13.372;2022-07-04T04:37:49;100787.97;;;17.63;80.43
68525;BME280;55524;51.380;13.372;2022-07-04T04:40:16;100793.13;;;17.66;80.01
68525;BME280;55524;51.380;13.372;2022-07-04T04:42:43;100801.38;;;17.78;79.88
68525;BME280;55524;51.380;13.372;2022-07-04T04:45:09;100792.94;;;17.69;79.89
68525;BME280;55524;51.380;13.372;2022-07-04T04:47:36;100797.56;;;17.82;79.82
68525;BME280;55524;51.380;13.372;2022-07-04T04:50:02;100789.44;;;17.83;79.06
68525;BME280;55524;51.380;13.372;2022-07-04T04:52:29;100795.19;;;17.91;79.29
68525;BME280;55524;51.380;13.372;2022-07-04T04:54:55;100799.38;;;17.96;78.70
68525;BME280;55524;51.380;13.372;2022-07-04T04:57:21;100795.19;;;17.91;79.07
68525;BME280;55524;51.380;13.372;2022-07-04T04:59:48;100809.50;;;18.05;78.69
68525;BME280;55524;51.380;13.372;2022-07-04T05:02:14;100802.25;;;18.07;78.02
68525;BME280;55524;51.380;13.372;2022-07-04T05:04:40;100808.84;;;18.15;78.04
68525;BME280;55524;51.380;13.372;2022-07-04T05:07:06;100806.03;;;18.17;78.08
68525;BME280;55524;51.380;13.372;2022-07-04T05:09:33;100804.88;;;18.21;77.93
68525;BME280;55524;51.380;13.372;2022-07-04T05:11:59;100802.31;;;18.19;78.37
68525;BME280;55524;51.380;13.372;2022-07-04T05:14:26;100799.47;;;18.23;77.96
68525;BME280;55524;51.380;13.372;2022-07-04T05:16:52;100810.34;;;18.19;78.71
68525;BME280;55524;51.380;13.372;2022-07-04T05:19:18;100808.59;;;18.33;78.47
68525;BME280;55524;51.380;13.372;2022-07-04T05:21:44;100811.88;;;18.38;77.95
68525;BME280;55524;51.380;13.372;2022-07-04T05:24:11;100795.69;;;18.39;78.66
68525;BME280;55524;51.380;13.372;2022-07-04T05:26:37;100801.91;;;18.54;77.65
68525;BME280;55524;51.380;13.372;2022-07-04T05:29:04;100796.03;;;18.62;76.95
68525;BME280;55524;51.380;13.372;2022-07-04T05:31:30;100809.22;;;18.65;77.36
68525;BME280;55524;51.380;13.372;2022-07-04T05:33:57;100811.53;;;18.71;77.44
68525;BME280;55524;51.380;13.372;2022-07-04T05:36:24;100813.50;;;18.82;77.11
68525;BME280;55524;51.380;13.372;2022-07-04T05:38:51;100815.56;;;18.91;76.50
68525;BME280;55524;51.380;13.372;2022-07-04T05:41:17;100813.66;;;18.93;76.49
68525;BME280;55524;51.380;13.372;2022-07-04T05:43:43;100813.19;;;18.86;76.25
68525;BME280;55524;51.380;13.372;2022-07-04T05:46:10;100817.84;;;18.97;76.10
68525;BME280;55524;51.380;13.372;2022-07-04T05:48:36;100819.59;;;19.11;75.88
68525;BME280;55524;51.380;13.372;2022-07-04T05:51:03;100817.03;;;19.09;75.54
68525;BME280;55524;51.380;13.372;2022-07-04T05:53:29;100821.66;;;19.20;75.27
68525;BME280;55524;51.380;13.372;2022-07-04T05:55:56;100822.09;;;19.14;75.39
68525;BME280;55524;51.380;13.372;2022-07-04T05:58:22;100826.06;;;19.21;75.13
68525;BME280;55524;51.380;13.372;2022-07-04T06:00:48;100821.91;;;19.30;74.94
68525;BME280;55524;51.380;13.372;2022-07-04T06:03:14;100835.25;;;19.44;74.77
68525;BME280;55524;51.380;13.372;2022-07-04T06:05:43;100833.50;;;19.43;73.59
68525;BME280;55524;51.380;13.372;2022-07-04T06:08:25;100840.63;;;19.57;73.75
68525;BME280;55524;51.380;13.372;2022-07-04T06:10:51;100835.16;;;19.58;73.20
68525;BME280;55524;51.380;13.372;2022-07-04T06:13:25;100832.75;;;19.68;73.21
68525;BME280;55524;51.380;13.372;2022-07-04T06:15:53;100837.00;;;19.71;72.15
68525;BME280;55524;51.380;13.372;2022-07-04T06:18:19;100833.78;;;19.78;72.23
68525;BME280;55524;51.380;13.372;2022-07-04T06:20:45;100835.28;;;19.82;71.59
68525;BME280;55524;51.380;13.372;2022-07-04T06:23:12;100846.78;;;19.97;70.60
68525;BME280;55524;51.380;13.372;2022-07-04T06:25:38;100848.63;;;19.97;70.56
68525;BME280;55524;51.380;13.372;2022-07-04T06:28:25;100843.34;;;19.95;69.82
68525;BME280;55524;51.380;13.372;2022-07-04T06:30:54;100842.06;;;20.13;69.29
68525;BME280;55524;51.380;13.372;2022-07-04T06:33:20;100847.31;;;20.15;68.29
68525;BME280;55524;51.380;13.372;2022-07-04T06:35:46;100837.00;;;20.22;68.48
68525;BME280;55524;51.380;13.372;2022-07-04T06:38:27;100841.38;;;20.23;68.04
68525;BME280;55524;51.380;13.372;2022-07-04T06:40:55;100841.31;;;20.24;67.64
68525;BME280;55524;51.380;13.372;2022-07-04T06:43:22;100851.91;;;20.26;66.91
68525;BME280;55524;51.380;13.372;2022-07-04T06:45:50;100838.72;;;20.35;65.20
68525;BME280;55524;51.380;13.372;2022-07-04T06:48:17;100840.19;;;20.52;66.51
68525;BME280;55524;51.380;13.372;2022-07-04T06:50:45;100838.66;;;20.61;66.14
68525;BME280;55524;51.380;13.372;2022-07-04T06:53:11;100830.59;;;20.61;64.60
68525;BME280;55524;51.380;13.372;2022-07-04T06:55:38;100829.75;;;20.60;64.76
68525;BME280;55524;51.380;13.372;2022-07-04T06:58:06;100818.91;;;20.86;62.48
68525;BME280;55524;51.380;13.372;2022-07-04T07:00:34;100824.19;;;20.87;62.80
68525;BME280;55524;51.380;13.372;2022-07-04T07:03:01;100828.00;;;20.96;63.29
68525;BME280;55524;51.380;13.372;2022-07-04T07:05:29;100824.25;;;20.99;62.98
68525;BME280;55524;51.380;13.372;2022-07-04T07:07:56;100805.72;;;21.18;61.22
68525;BME280;55524;51.380;13.372;2022-07-04T07:10:22;100777.34;;;21.14;58.47
68525;BME280;55524;51.380;13.372;2022-07-04T07:12:48;100805.13;;;21.15;61.01
68525;BME280;55524;51.380;13.372;2022-07-04T07:15:14;100815.88;;;21.39;61.31
68525;BME280;55524;51.380;13.372;2022-07-04T07:17:42;100799.03;;;21.48;59.36
68525;BME280;55524;51.380;13.372;2022-07-04T07:20:09;100797.22;;;21.59;58.19
68525;BME280;55524;51.380;13.372;2022-07-04T07:22:35;100793.16;;;21.65;57.59
68525;BME280;55524;51.380;13.372;2022-07-04T07:25:02;100795.03;;;21.76;57.42
68525;BME280;55524;51.380;13.372;2022-07-04T07:27:28;100785.38;;;21.84;57.36
68525;BME280;55524;51.380;13.372;2022-07-04T07:29:54;100786.13;;;21.98;56.63
68525;BME280;55524;51.380;13.372;2022-07-04T07:32:20;100763.00;;;21.95;54.38
68525;BME280;55524;51.380;13.372;2022-07-04T07:34:47;100776.31;;;21.97;55.70
68525;BME280;55524;51.380;13.372;2022-07-04T07:37:13;100786.84;;;21.89;56.52
68525;BME280;55524;51.380;13.372;2022-07-04T07:39:39;100776.47;;;22.06;55.64
68525;BME280;55524;51.380;13.372;2022-07-04T07:42:05;100762.28;;;22.16;53.95
68525;BME280;55524;51.380;13.372;2022-07-04T07:44:32;100765.91;;;22.37;54.50
68525;BME280;55524;51.380;13.372;2022-07-04T07:46:58;100746.16;;;22.59;52.25
68525;BME280;55524;51.380;13.372;2022-07-04T07:49:24;100749.75;;;22.80;52.69
68525;BME280;55524;51.380;13.372;2022-07-04T07:51:51;100751.28;;;23.05;51.87
68525;BME280;55524;51.380;13.372;2022-07-04T07:54:17;100752.53;;;22.90;51.38
68525;BME280;55524;51.380;13.372;2022-07-04T07:56:43;100741.88;;;23.21;50.29
68525;BME280;55524;51.380;13.372;2022-07-04T07:59:10;100748.78;;;23.35;50.60
68525;BME280;55524;51.380;13.372;2022-07-04T08:01:36;100744.81;;;23.39;48.35
68525;BME280;55524;51.380;13.372;2022-07-04T08:04:02;100733.66;;;23.22;47.12
68525;BME280;55524;51.380;13.372;2022-07-04T08:06:48;100740.66;;;23.55;48.87
68525;BME280;55524;51.380;13.372;2022-07-04T08:09:14;100741.94;;;23.72;48.92
68525;BME280;55524;51.380;13.372;2022-07-04T08:11:42;100739.03;;;23.43;49.39
68525;BME280;55524;51.380;13.372;2022-07-04T08:14:08;100737.41;;;23.83;48.65
68525;BME280;55524;51.380;13.372;2022-07-04T08:16:35;100721.34;;;24.12;46.71
68525;BME280;55524;51.380;13.372;2022-07-04T08:19:02;100713.63;;;24.47;44.09
68525;BME280;55524;51.380;13.372;2022-07-04T08:21:28;100711.13;;;24.25;43.57
68525;BME280;55524;51.380;13.372;2022-07-04T08:23:55;100715.34;;;24.18;44.87
68525;BME280;55524;51.380;13.372;2022-07-04T08:26:21;100703.66;;;24.67;43.80
68525;BME280;55524;51.380;13.372;2022-07-04T08:28:47;100706.94;;;24.71;43.72
68525;BME280;55524;51.380;13.372;2022-07-04T08:31:14;100696.25;;;24.89;42.68
68525;BME280;55524;51.380;13.372;2022-07-04T08:33:40;100712.03;;;24.54;43.96
68525;BME280;55524;51.380;13.372;2022-07-04T08:36:06;100705.78;;;24.73;43.70
68525;BME280;55524;51.380;13.372;2022-07-04T08:38:32;100708.66;;;24.91;43.20
68525;BME280;55524;51.380;13.372;2022-07-04T08:41:01;100694.50;;;25.36;41.04
68525;BME280;55524;51.380;13.372;2022-07-04T08:43:30;100701.50;;;25.10;43.17
68525;BME280;55524;51.380;13.372;2022-07-04T08:46:00;100708.06;;;24.97;43.04
68525;BME280;55524;51.380;13.372;2022-07-04T08:48:31;100712.03;;;24.74;43.56
68525;BME280;55524;51.380;13.372;2022-07-04T08:51:10;100700.25;;;24.85;43.31
68525;BME280;55524;51.380;13.372;2022-07-04T08:53:43;100712.50;;;24.79;43.44
68525;BME280;55524;51.380;13.372;2022-07-04T08:56:34;100713.06;;;24.63;43.55
68525;BME280;55524;51.380;13.372;2022-07-04T08:59:19;100704.34;;;25.08;43.23
68525;BME280;55524;51.380;13.372;2022-07-04T09:01:45;100707.88;;;25.38;43.03
68525;BME280;55524;51.380;13.372;2022-07-04T09:04:17;100708.63;;;25.20;42.88
68525;BME280;55524;51.380;13.372;2022-07-04T09:07:04;100710.75;;;25.17;43.10
68525;BME280;55524;51.380;13.372;2022-07-04T09:09:42;100705.16;;;25.38;42.75
68525;BME280;55524;51.380;13.372;2022-07-04T09:12:12;100708.03;;;25.73;41.94
68525;BME280;55524;51.380;13.372;2022-07-04T09:14:39;100692.91;;;25.90;41.32
68525;BME280;55524;51.380;13.372;2022-07-04T09:17:06;100704.25;;;25.57;42.13
68525;BME280;55524;51.380;13.372;2022-07-04T09:19:33;100708.63;;;25.01;43.86
68525;BME280;55524;51.380;13.372;2022-07-04T09:22:09;100708.19;;;25.06;44.23
68525;BME280;55524;51.380;13.372;2022-07-04T09:24:52;100702.72;;;25.54;43.45
68525;BME280;55524;51.380;13.372;2022-07-04T09:27:35;100695.78;;;25.69;41.98
68525;BME280;55524;51.380;13.372;2022-07-04T09:30:03;100710.44;;;25.39;42.98
68525;BME280;55524;51.380;13.372;2022-07-04T09:32:48;100716.00;;;24.50;44.84
68525;BME280;55524;51.380;13.372;2022-07-04T09:35:21;100711.78;;;24.77;44.21
68525;BME280;55524;51.380;13.372;2022-07-04T09:37:50;100712.91;;;25.70;42.83
68525;BME280;55524;51.380;13.372;2022-07-04T09:40:37;100705.31;;;25.73;41.83
68525;BME280;55524;51.380;13.372;2022-07-04T09:43:23;100690.94;;;25.83;40.90
68525;BME280;55524;51.380;13.372;2022-07-04T09:45:57;100691.16;;;26.62;40.79
68525;BME280;55524;51.380;13.372;2022-07-04T09:48:25;100672.03;;;27.26;37.91
68525;BME280;55524;51.380;13.372;2022-07-04T09:50:51;100690.00;;;26.47;39.83
68525;BME280;55524;51.380;13.372;2022-07-04T09:53:18;100691.94;;;25.82;41.72
68525;BME280;55524;51.380;13.372;2022-07-04T09:55:44;100695.50;;;25.82;41.62
68525;BME280;55524;51.380;13.372;2022-07-04T09:58:16;100703.22;;;25.67;41.66
68525;BME280;55524;51.380;13.372;2022-07-04T10:00:44;100701.41;;;25.95;42.57
68525;BME280;55524;51.380;13.372;2022-07-04T10:03:25;100689.56;;;25.96;41.38
68525;BME280;55524;51.380;13.372;2022-07-04T10:06:05;100705.38;;;25.64;42.58
68525;BME280;55524;51.380;13.372;2022-07-04T10:08:32;100699.72;;;25.94;42.48
68525;BME280;55524;51.380;13.372;2022-07-04T10:11:00;100692.16;;;25.98;41.13
68525;BME280;55524;51.380;13.372;2022-07-04T10:13:27;100677.53;;;26.54;40.84
68525;BME280;55524;51.380;13.372;2022-07-04T10:15:54;100691.31;;;26.15;40.55
68525;BME280;55524;51.380;13.372;2022-07-04T10:18:21;100687.56;;;26.44;41.00
68525;BME280;55524;51.380;13.372;2022-07-04T10:20:49;100689.81;;;26.03;40.88
68525;BME280;55524;51.380;13.372;2022-07-04T10:23:18;100696.28;;;25.55;42.33
68525;BME280;55524;51.380;13.372;2022-07-04T10:25:52;100689.22;;;25.82;41.14
68525;BME280;55524;51.380;13.372;2022-07-04T10:28:20;100702.22;;;25.31;42.52
68525;BME280;55524;51.380;13.372;2022-07-04T10:30:49;100684.81;;;25.34;42.86
68525;BME280;55524;51.380;13.372;2022-07-04T10:33:21;100675.88;;;25.61;41.41
68525;BME280;55524;51.380;13.372;2022-07-04T10:36:04;100674.97;;;26.25;40.71
68525;BME280;55524;51.380;13.372;2022-07-04T10:38:46;100662.22;;;26.35;39.48
68525;BME280;55524;51.380;13.372;2022-07-04T10:41:13;100668.16;;;26.21;41.06
68525;BME280;55524;51.380;13.372;2022-07-04T10:51:35;100679.50;;;25.42;42.73
68525;BME280;55524;51.380;13.372;2022-07-04T10:54:09;100659.03;;;26.50;39.83
68525;BME280;55524;51.380;13.372;2022-07-04T10:56:41;100657.97;;;26.86;39.33
68525;BME280;55524;51.380;13.372;2022-07-04T10:59:10;100652.56;;;27.38;38.61
68525;BME280;55524;51.380;13.372;2022-07-04T11:01:37;100657.53;;;27.43;38.17
68525;BME280;55524;51.380;13.372;2022-07-04T11:04:03;100652.09;;;27.43;37.38
68525;BME280;55524;51.380;13.372;2022-07-04T11:09:23;100660.91;;;26.93;38.87
68525;BME280;55524;51.380;13.372;2022-07-04T11:11:58;100645.22;;;27.57;37.75
68525;BME280;55524;51.380;13.372;2022-07-04T11:14:43;100644.47;;;27.46;37.27
68525;BME280;55524;51.380;13.372;2022-07-04T11:17:16;100643.25;;;26.89;38.24
68525;BME280;55524;51.380;13.372;2022-07-04T11:19:45;100646.72;;;26.10;39.69
68525;BME280;55524;51.380;13.372;2022-07-04T11:22:12;100648.47;;;26.46;39.10
68525;BME280;55524;51.380;13.372;2022-07-04T11:24:50;100652.25;;;26.71;38.62
68525;BME280;55524;51.380;13.372;2022-07-04T11:27:16;100650.09;;;26.57;39.08
68525;BME280;55524;51.380;13.372;2022-07-04T11:29:54;100653.75;;;26.20;39.47
68525;BME280;55524;51.380;13.372;2022-07-04T11:32:21;100644.59;;;26.67;39.15
68525;BME280;55524;51.380;13.372;2022-07-04T11:34:55;100641.09;;;26.75;39.07
68525;BME280;55524;51.380;13.372;2022-07-04T11:37:22;100635.28;;;26.69;38.26
68525;BME280;55524;51.380;13.372;2022-07-04T11:39:53;100640.28;;;27.52;37.40
68525;BME280;55524;51.380;13.372;2022-07-04T11:42:40;100640.91;;;26.94;38.19
68525;BME280;55524;51.380;13.372;2022-07-04T11:45:25;100644.56;;;27.29;37.92
68525;BME280;55524;51.380;13.372;2022-07-04T11:47:51;100638.88;;;27.14;37.47
68525;BME280;55524;51.380;13.372;2022-07-04T11:50:18;100633.28;;;27.50;36.68
68525;BME280;55524;51.380;13.372;2022-07-04T11:52:48;100627.53;;;27.18;36.78
68525;BME280;55524;51.380;13.372;2022-07-04T11:55:18;100631.31;;;26.82;37.88
68525;BME280;55524;51.380;13.372;2022-07-04T11:57:46;100630.97;;;26.59;38.57
68525;BME280;55524;51.380;13.372;2022-07-04T12:00:16;100642.03;;;26.30;39.43
68525;BME280;55524;51.380;13.372;2022-07-04T12:02:45;100627.38;;;27.02;37.93
68525;BME280;55524;51.380;13.372;2022-07-04T12:05:14;100629.09;;;27.98;37.00
68525;BME280;55524;51.380;13.372;2022-07-04T12:07:43;100614.31;;;27.92;35.89
68525;BME280;55524;51.380;13.372;2022-07-04T12:10:30;100632.88;;;27.70;37.33
68525;BME280;55524;51.380;13.372;2022-07-04T12:13:00;100630.44;;;27.93;36.59
68525;BME280;55524;51.380;13.372;2022-07-04T12:15:57;100626.28;;;28.24;36.13
68525;BME280;55524;51.380;13.372;2022-07-04T12:18:25;100622.56;;;28.49;35.55
68525;BME280;55524;51.380;13.372;2022-07-04T12:20:52;100622.41;;;28.83;34.30
68525;BME280;55524;51.380;13.372;2022-07-04T12:23:20;100624.28;;;28.91;34.37
68525;BME280;55524;51.380;13.372;2022-07-04T12:25:49;100622.25;;;28.60;35.14
68525;BME280;55524;51.380;13.372;2022-07-04T12:28:16;100629.88;;;28.57;34.37
68525;BME280;55524;51.380;13.372;2022-07-04T12:30:59;100628.34;;;28.38;34.71
68525;BME280;55524;51.380;13.372;2022-07-04T12:33:29;100637.69;;;27.51;36.03
68525;BME280;55524;51.380;13.372;2022-07-04T12:36:01;100637.81;;;28.34;36.15
68525;BME280;55524;51.380;13.372;2022-07-04T12:43:22;100637.00;;;27.14;36.35
68525;BME280;55524;51.380;13.372;2022-07-04T12:45:51;100640.53;;;26.89;37.08
68525;BME280;55524;51.380;13.372;2022-07-04T12:48:25;100635.91;;;26.63;36.86
68525;BME280;55524;51.380;13.372;2022-07-04T12:50:52;100632.72;;;27.38;36.78
68525;BME280;55524;51.380;13.372;2022-07-04T12:53:19;100633.22;;;28.34;34.86
68525;BME280;55524;51.380;13.372;2022-07-04T12:55:47;100617.50;;;27.87;34.18
68525;BME280;55524;51.380;13.372;2022-07-04T12:58:14;100617.69;;;27.17;35.17
68525;BME280;55524;51.380;13.372;2022-07-04T13:00:41;100619.34;;;27.79;34.50
68525;BME280;55524;51.380;13.372;2022-07-04T13:03:08;100619.84;;;28.49;33.36